sensor_id;sensor_type;location;lat;lon;timestamp;pressure;altitude;pressure_sealevel;temperature;humidity
55277;BME280;41136;51.478;-2.610;2023-05-02T00:01:40;101470.69;;;15.10;92.01
55277;BME280;41136;51.478;-2.610;2023-05-02T00:04:06;101473.46;;;15.34;91.30
55277;BME280;41136;51.478;-2.610;2023-05-02T00:06:31;101472.34;;;15.41;91.11
55277;BME280;41136;51.478;-2.610;2023-05-02T00:08:57;101478.89;;;15.35;91.82
55277;BME280;41136;51.478;-2.610;2023-05-02T00:11:22;101482.30;;;14.83;92.56
55277;BME280;41136;51.478;-2.610;2023-05-02T00:13:47;101482.32;;;15.38;92.49
55277;BME280;41136;51.478;-2.610;2023-05-02T00:16:12;101480.66;;;14.98;92.54
55277;BME280;41136;51.478;-2.610;2023-05-02T00:18:38;101480.78;;;15.74;90.20
55277;BME280;41136;51.478;-2.610;2023-05-02T00:21:03;101482.08;;;15.79;89.60
55277;BME280;41136;51.478;-2.610;2023-05-02T00:23:28;101489.65;;;15.27;90.85
55277;BME280;41136;51.478;-2.610;2023-05-02T00:25:54;101487.60;;;14.78;92.66
55277;BME280;41136;51.478;-2.610;2023-05-02T00:28:19;101485.53;;;15.14;91.48
55277;BME280;41136;51.478;-2.610;2023-05-02T00:30:45;101482.51;;;15.29;91.41
55277;BME280;41136;51.478;-2.610;2023-05-02T00:33:10;101481.57;;;14.90;92.17
55277;BME280;41136;51.478;-2.610;2023-05-02T00:35:35;101485.25;;;15.05;92.45
55277;BME280;41136;51.478;-2.610;2023-05-02T00:38:00;101486.04;;;14.87;91.95
55277;BME280;41136;51.478;-2.610;2023-05-02T00:40:26;101482.88;;;14.97;92.50
55277;BME280;41136;51.478;-2.610;2023-05-02T00:42:51;101482.86;;;14.65;93.38
55277;BME280;41136;51.478;-2.610;2023-05-02T00:45:16;101478.62;;;14.13;95.32
55277;BME280;41136;51.478;-2.610;2023-05-02T00:47:42;101480.99;;;14.20;95.94
55277;BME280;41136;51.478;-2.610;2023-05-02T00:50:08;101482.66;;;14.60;95.14
55277;BME280;41136;51.478;-2.610;2023-05-02T00:52:32;101478.60;;;14.48;95.25
55277;BME280;41136;51.478;-2.610;2023-05-02T00:54:58;101479.00;;;14.17;96.07
55277;BME280;41136;51.478;-2.610;2023-05-02T00:57:23;101475.07;;;13.78;97.95
55277;BME280;41136;51.478;-2.610;2023-05-02T00:59:49;101477.21;;;14.00;97.18
55277;BME280;41136;51.478;-2.610;2023-05-02T01:02:24;101478.18;;;13.67;97.76
55277;BME280;41136;51.478;-2.610;2023-05-02T01:04:46;101473.00;;;13.59;98.29
55277;BME280;41136;51.478;-2.610;2023-05-02T01:07:17;101470.72;;;13.20;99.88
55277;BME280;41136;51.478;-2.610;2023-05-02T01:09:38;101472.49;;;14.23;98.56
55277;BME280;41136;51.478;-2.610;2023-05-02T01:12:00;101473.99;;;14.31;97.77
55277;BME280;41136;51.478;-2.610;2023-05-02T01:14:20;101472.39;;;14.31;96.35
55277;BME280;41136;51.478;-2.610;2023-05-02T01:16:46;101469.79;;;14.23;94.85
55277;BME280;41136;51.478;-2.610;2023-05-02T01:19:18;101465.94;;;14.63;93.79
55277;BME280;41136;51.478;-2.610;2023-05-02T01:21:37;101470.90;;;14.60;93.19
55277;BME280;41136;51.478;-2.610;2023-05-02T01:24:09;101471.81;;;14.10;93.59
55277;BME280;41136;51.478;-2.610;2023-05-02T01:26:31;101472.37;;;14.17;93.37
55277;BME280;41136;51.478;-2.610;2023-05-02T01:28:57;101468.55;;;13.49;96.98
55277;BME280;41136;51.478;-2.610;2023-05-02T01:31:17;101469.77;;;13.94;95.44
55277;BME280;41136;51.478;-2.610;2023-05-02T01:33:44;101471.07;;;14.16;94.18
55277;BME280;41136;51.478;-2.610;2023-05-02T01:36:08;101465.24;;;14.42;92.80
55277;BME280;41136;51.478;-2.610;2023-05-02T01:38:33;101465.75;;;13.93;94.19
55277;BME280;41136;51.478;-2.610;2023-05-02T01:40:59;101465.61;;;13.98;93.84
55277;BME280;41136;51.478;-2.610;2023-05-02T01:43:23;101465.00;;;14.36;94.24
55277;BME280;41136;51.478;-2.610;2023-05-02T01:45:49;101465.16;;;14.57;94.08
55277;BME280;41136;51.478;-2.610;2023-05-02T01:48:15;101468.73;;;14.08;94.53
55277;BME280;41136;51.478;-2.610;2023-05-02T01:50:40;101469.77;;;12.98;97.32
55277;BME280;41136;51.478;-2.610;2023-05-02T01:53:07;101470.45;;;14.00;97.09
55277;BME280;41136;51.478;-2.610;2023-05-02T01:55:30;101473.26;;;13.85;95.49
55277;BME280;41136;51.478;-2.610;2023-05-02T01:57:55;101474.12;;;14.09;94.33
55277;BME280;41136;51.478;-2.610;2023-05-02T02:00:21;101473.43;;;13.92;95.00
55277;BME280;41136;51.478;-2.610;2023-05-02T02:02:46;101475.43;;;14.35;93.77
55277;BME280;41136;51.478;-2.610;2023-05-02T02:05:12;101479.70;;;14.40;92.91
55277;BME280;41136;51.478;-2.610;2023-05-02T02:07:37;101479.55;;;14.64;92.64
55277;BME280;41136;51.478;-2.610;2023-05-02T02:10:03;101474.89;;;14.83;92.26
55277;BME280;41136;51.478;-2.610;2023-05-02T02:12:34;101476.42;;;14.47;92.96
55277;BME280;41136;51.478;-2.610;2023-05-02T02:14:59;101484.33;;;14.27;92.85
55277;BME280;41136;51.478;-2.610;2023-05-02T02:17:24;101487.61;;;14.45;93.49
55277;BME280;41136;51.478;-2.610;2023-05-02T02:19:44;101490.91;;;14.57;93.19
55277;BME280;41136;51.478;-2.610;2023-05-02T02:22:12;101493.33;;;14.42;94.28
55277;BME280;41136;51.478;-2.610;2023-05-02T02:24:36;101497.70;;;14.68;94.13
55277;BME280;41136;51.478;-2.610;2023-05-02T02:27:01;101498.60;;;15.05;92.43
55277;BME280;41136;51.478;-2.610;2023-05-02T02:29:26;101504.87;;;14.96;91.96
55277;BME280;41136;51.478;-2.610;2023-05-02T02:31:51;101508.15;;;14.22;93.80
55277;BME280;41136;51.478;-2.610;2023-05-02T02:34:17;101509.68;;;14.84;93.28
55277;BME280;41136;51.478;-2.610;2023-05-02T02:36:45;101512.84;;;15.02;93.56
55277;BME280;41136;51.478;-2.610;2023-05-02T02:39:17;101519.61;;;14.94;93.61
55277;BME280;41136;51.478;-2.610;2023-05-02T02:41:39;101523.10;;;14.26;92.45
55277;BME280;41136;51.478;-2.610;2023-05-02T02:44:05;101523.47;;;14.42;94.32
55277;BME280;41136;51.478;-2.610;2023-05-02T02:46:32;101524.61;;;14.59;92.89
55277;BME280;41136;51.478;-2.610;2023-05-02T02:48:59;101520.24;;;14.74;92.44
55277;BME280;41136;51.478;-2.610;2023-05-02T02:51:24;101524.08;;;14.71;93.45
55277;BME280;41136;51.478;-2.610;2023-05-02T02:53:49;101525.54;;;14.74;92.69
55277;BME280;41136;51.478;-2.610;2023-05-02T02:56:12;101526.84;;;15.18;91.45
55277;BME280;41136;51.478;-2.610;2023-05-02T02:58:40;101525.84;;;14.15;94.03
55277;BME280;41136;51.478;-2.610;2023-05-02T03:01:01;101525.08;;;14.07;94.32
55277;BME280;41136;51.478;-2.610;2023-05-02T03:03:25;101524.91;;;13.09;97.07
55277;BME280;41136;51.478;-2.610;2023-05-02T03:05:49;101529.18;;;14.07;95.00
55277;BME280;41136;51.478;-2.610;2023-05-02T03:08:14;101536.07;;;14.70;92.86
55277;BME280;41136;51.478;-2.610;2023-05-02T03:10:39;101536.39;;;14.70;92.03
55277;BME280;41136;51.478;-2.610;2023-05-02T03:13:05;101532.77;;;15.05;90.75
55277;BME280;41136;51.478;-2.610;2023-05-02T03:17:55;101537.21;;;14.68;91.02
55277;BME280;41136;51.478;-2.610;2023-05-02T03:20:21;101535.94;;;14.18;92.86
55277;BME280;41136;51.478;-2.610;2023-05-02T03:22:46;101533.99;;;14.13;92.60
55277;BME280;41136;51.478;-2.610;2023-05-02T03:25:12;101541.93;;;14.66;91.00
55277;BME280;41136;51.478;-2.610;2023-05-02T03:27:37;101546.34;;;14.79;90.12
55277;BME280;41136;51.478;-2.610;2023-05-02T03:30:03;101544.24;;;15.09;88.25
55277;BME280;41136;51.478;-2.610;2023-05-02T03:32:28;101549.94;;;14.78;89.22
55277;BME280;41136;51.478;-2.610;2023-05-02T03:34:53;101547.94;;;14.52;89.91
55277;BME280;41136;51.478;-2.610;2023-05-02T03:37:18;101551.82;;;15.00;89.45
55277;BME280;41136;51.478;-2.610;2023-05-02T03:39:43;101550.45;;;14.95;89.37
55277;BME280;41136;51.478;-2.610;2023-05-02T03:42:09;101550.63;;;15.24;88.59
55277;BME280;41136;51.478;-2.610;2023-05-02T03:44:34;101551.26;;;15.00;89.15
55277;BME280;41136;51.478;-2.610;2023-05-02T03:47:00;101553.62;;;15.08;88.45
55277;BME280;41136;51.478;-2.610;2023-05-02T03:49:25;101554.72;;;14.99;89.62
55277;BME280;41136;51.478;-2.610;2023-05-02T03:51:50;101559.90;;;14.74;89.33
55277;BME280;41136;51.478;-2.610;2023-05-02T03:54:16;101555.53;;;15.20;89.22
55277;BME280;41136;51.478;-2.610;2023-05-02T03:56:41;101556.06;;;15.18;89.18
55277;BME280;41136;51.478;-2.610;2023-05-02T03:59:06;101560.71;;;14.75;89.59
55277;BME280;41136;51.478;-2.610;2023-05-02T04:01:32;101562.35;;;14.51;90.72
55277;BME280;41136;51.478;-2.610;2023-05-02T04:03:57;101561.28;;;14.96;89.95
55277;BME280;41136;51.478;-2.610;2023-05-02T04:06:23;101555.95;;;15.08;89.89
55277;BME280;41136;51.478;-2.610;2023-05-02T04:08:48;101554.42;;;14.99;89.42
55277;BME280;41136;51.478;-2.610;2023-05-02T04:11:14;101553.28;;;14.89;89.83
55277;BME280;41136;51.478;-2.610;2023-05-02T04:13:39;101557.11;;;14.75;90.05
55277;BME280;41136;51.478;-2.610;2023-05-02T04:16:05;101554.29;;;14.81;90.28
55277;BME280;41136;51.478;-2.610;2023-05-02T04:18:30;101557.35;;;15.14;89.57
55277;BME280;41136;51.478;-2.610;2023-05-02T04:20:56;101562.01;;;14.86;90.24
55277;BME280;41136;51.478;-2.610;2023-05-02T04:23:21;101562.14;;;14.87;91.04
55277;BME280;41136;51.478;-2.610;2023-05-02T04:25:51;101560.44;;;14.43;91.84
55277;BME280;41136;51.478;-2.610;2023-05-02T04:28:12;101562.47;;;14.25;92.50
55277;BME280;41136;51.478;-2.610;2023-05-02T04:30:38;101559.44;;;14.17;92.57
55277;BME280;41136;51.478;-2.610;2023-05-02T04:33:04;101560.82;;;13.93;93.20
55277;BME280;41136;51.478;-2.610;2023-05-02T04:35:29;101561.23;;;14.31;93.78
55277;BME280;41136;51.478;-2.610;2023-05-02T04:37:54;101554.82;;;13.90;94.92
55277;BME280;41136;51.478;-2.610;2023-05-02T04:40:19;101552.08;;;13.55;95.45
55277;BME280;41136;51.478;-2.610;2023-05-02T04:42:44;101557.10;;;13.48;96.69
55277;BME280;41136;51.478;-2.610;2023-05-02T04:45:10;101562.57;;;13.43;97.54
55277;BME280;41136;51.478;-2.610;2023-05-02T04:47:35;101561.91;;;13.39;98.89
55277;BME280;41136;51.478;-2.610;2023-05-02T04:50:00;101566.47;;;13.14;99.01
55277;BME280;41136;51.478;-2.610;2023-05-02T04:52:26;101563.23;;;12.89;99.54
55277;BME280;41136;51.478;-2.610;2023-05-02T04:58:46;101567.61;;;12.87;96.40
55277;BME280;41136;51.478;-2.610;2023-05-02T05:01:12;101572.06;;;13.11;96.76
55277;BME280;41136;51.478;-2.610;2023-05-02T05:03:37;101573.64;;;13.06;95.90
55277;BME280;41136;51.478;-2.610;2023-05-02T05:06:03;101573.70;;;12.90;95.98
55277;BME280;41136;51.478;-2.610;2023-05-02T05:08:28;101576.99;;;13.66;97.86
55277;BME280;41136;51.478;-2.610;2023-05-02T05:10:54;101575.36;;;13.19;99.83
55277;BME280;41136;51.478;-2.610;2023-05-02T05:13:19;101578.79;;;13.18;100.00
55277;BME280;41136;51.478;-2.610;2023-05-02T05:15:46;101578.24;;;13.01;100.00
55277;BME280;41136;51.478;-2.610;2023-05-02T05:18:10;101579.62;;;13.14;100.00
55277;BME280;41136;51.478;-2.610;2023-05-02T05:20:35;101583.68;;;12.65;100.00
55277;BME280;41136;51.478;-2.610;2023-05-02T05:23:01;101589.16;;;13.10;100.00
55277;BME280;41136;51.478;-2.610;2023-05-02T05:25:26;101589.37;;;12.84;100.00
55277;BME280;41136;51.478;-2.610;2023-05-02T05:27:51;101588.98;;;13.07;100.00
55277;BME280;41136;51.478;-2.610;2023-05-02T05:30:17;101587.57;;;13.53;100.00
55277;BME280;41136;51.478;-2.610;2023-05-02T05:32:42;101588.59;;;13.05;100.00
55277;BME280;41136;51.478;-2.610;2023-05-02T05:35:08;101592.51;;;13.07;100.00
55277;BME280;41136;51.478;-2.610;2023-05-02T05:37:33;101592.03;;;12.95;100.00
55277;BME280;41136;51.478;-2.610;2023-05-02T05:39:59;101599.58;;;12.65;100.00
55277;BME280;41136;51.478;-2.610;2023-05-02T05:42:24;101602.14;;;12.36;100.00
55277;BME280;41136;51.478;-2.610;2023-05-02T05:44:49;101605.27;;;12.61;100.00
55277;BME280;41136;51.478;-2.610;2023-05-02T05:47:18;101607.17;;;12.52;100.00
55277;BME280;41136;51.478;-2.610;2023-05-02T05:49:41;101610.33;;;12.55;100.00
55277;BME280;41136;51.478;-2.610;2023-05-02T05:52:06;101618.29;;;12.58;100.00
55277;BME280;41136;51.478;-2.610;2023-05-02T05:54:32;101624.78;;;12.36;100.00
55277;BME280;41136;51.478;-2.610;2023-05-02T05:56:57;101629.10;;;12.69;100.00
55277;BME280;41136;51.478;-2.610;2023-05-02T05:59:23;101630.10;;;12.70;100.00
55277;BME280;41136;51.478;-2.610;2023-05-02T06:01:48;101633.83;;;12.27;100.00
55277;BME280;41136;51.478;-2.610;2023-05-02T06:04:14;101643.06;;;11.88;100.00
55277;BME280;41136;51.478;-2.610;2023-05-02T06:06:40;101650.29;;;11.86;100.00
55277;BME280;41136;51.478;-2.610;2023-05-02T06:09:05;101653.34;;;12.36;100.00
55277;BME280;41136;51.478;-2.610;2023-05-02T06:11:31;101651.62;;;11.75;100.00
55277;BME280;41136;51.478;-2.610;2023-05-02T06:13:57;101650.58;;;12.21;100.00
55277;BME280;41136;51.478;-2.610;2023-05-02T06:16:22;101647.10;;;11.24;100.00
55277;BME280;41136;51.478;-2.610;2023-05-02T06:18:49;101640.01;;;10.92;100.00
55277;BME280;41136;51.478;-2.610;2023-05-02T06:21:12;101639.16;;;11.50;100.00
55277;BME280;41136;51.478;-2.610;2023-05-02T06:23:38;101638.97;;;11.62;100.00
55277;BME280;41136;51.478;-2.610;2023-05-02T06:26:04;101649.59;;;11.73;100.00
55277;BME280;41136;51.478;-2.610;2023-05-02T06:28:29;101651.92;;;11.68;100.00
55277;BME280;41136;51.478;-2.610;2023-05-02T06:30:57;101655.04;;;11.50;100.00
55277;BME280;41136;51.478;-2.610;2023-05-02T06:33:20;101655.98;;;11.84;100.00
55277;BME280;41136;51.478;-2.610;2023-05-02T06:35:50;101659.08;;;11.23;100.00
55277;BME280;41136;51.478;-2.610;2023-05-02T06:38:11;101658.15;;;11.16;100.00
55277;BME280;41136;51.478;-2.610;2023-05-02T06:40:37;101658.68;;;11.05;100.00
55277;BME280;41136;51.478;-2.610;2023-05-02T06:43:03;101663.90;;;12.05;100.00
55277;BME280;41136;51.478;-2.610;2023-05-02T06:45:28;101666.35;;;12.03;100.00
55277;BME280;41136;51.478;-2.610;2023-05-02T06:47:54;101666.72;;;11.20;100.00
55277;BME280;41136;51.478;-2.610;2023-05-02T06:50:19;101668.91;;;11.21;100.00
55277;BME280;41136;51.478;-2.610;2023-05-02T06:52:45;101669.24;;;11.43;100.00
55277;BME280;41136;51.478;-2.610;2023-05-02T06:55:10;101674.68;;;11.72;100.00
55277;BME280;41136;51.478;-2.610;2023-05-02T06:57:36;101679.78;;;11.41;100.00
55277;BME280;41136;51.478;-2.610;2023-05-02T07:00:01;101677.39;;;11.29;100.00
55277;BME280;41136;51.478;-2.610;2023-05-02T07:02:26;101679.00;;;11.54;100.00
55277;BME280;41136;51.478;-2.610;2023-05-02T07:04:51;101676.09;;;11.56;100.00
55277;BME280;41136;51.478;-2.610;2023-05-02T07:07:17;101682.23;;;11.52;100.00
55277;BME280;41136;51.478;-2.610;2023-05-02T07:09:42;101683.54;;;10.78;100.00
55277;BME280;41136;51.478;-2.610;2023-05-02T07:12:07;101682.05;;;11.12;100.00
55277;BME280;41136;51.478;-2.610;2023-05-02T07:14:32;101687.19;;;11.64;100.00
55277;BME280;41136;51.478;-2.610;2023-05-02T07:16:57;101684.12;;;11.51;100.00
55277;BME280;41136;51.478;-2.610;2023-05-02T07:19:23;101686.97;;;11.99;100.00
55277;BME280;41136;51.478;-2.610;2023-05-02T07:21:48;101688.77;;;12.25;100.00
55277;BME280;41136;51.478;-2.610;2023-05-02T07:24:13;101691.77;;;12.37;100.00
55277;BME280;41136;51.478;-2.610;2023-05-02T07:26:39;101692.06;;;12.34;100.00
55277;BME280;41136;51.478;-2.610;2023-05-02T07:29:04;101687.70;;;11.83;100.00
55277;BME280;41136;51.478;-2.610;2023-05-02T07:31:29;101686.74;;;12.27;100.00
55277;BME280;41136;51.478;-2.610;2023-05-02T07:33:55;101689.91;;;12.32;100.00
55277;BME280;41136;51.478;-2.610;2023-05-02T07:36:20;101694.66;;;12.28;100.00
55277;BME280;41136;51.478;-2.610;2023-05-02T07:38:46;101698.25;;;12.22;100.00
55277;BME280;41136;51.478;-2.610;2023-05-02T07:41:12;101697.53;;;12.45;100.00
55277;BME280;41136;51.478;-2.610;2023-05-02T07:43:37;101696.82;;;12.32;100.00
55277;BME280;41136;51.478;-2.610;2023-05-02T07:46:04;101701.12;;;12.34;100.00
55277;BME280;41136;51.478;-2.610;2023-05-02T07:48:28;101702.80;;;11.79;100.00
55277;BME280;41136;51.478;-2.610;2023-05-02T07:50:53;101698.64;;;12.46;100.00
55277;BME280;41136;51.478;-2.610;2023-05-02T07:53:18;101695.33;;;12.24;100.00
55277;BME280;41136;51.478;-2.610;2023-05-02T07:55:44;101699.59;;;12.56;100.00
55277;BME280;41136;51.478;-2.610;2023-05-02T07:58:09;101705.73;;;12.50;100.00
55277;BME280;41136;51.478;-2.610;2023-05-02T08:00:35;101709.33;;;11.70;100.00
55277;BME280;41136;51.478;-2.610;2023-05-02T08:03:00;101705.67;;;12.52;100.00
55277;BME280;41136;51.478;-2.610;2023-05-02T08:05:25;101704.85;;;12.09;100.00
55277;BME280;41136;51.478;-2.610;2023-05-02T08:07:51;101709.37;;;12.40;100.00
55277;BME280;41136;51.478;-2.610;2023-05-02T08:10:16;101707.65;;;11.95;100.00
55277;BME280;41136;51.478;-2.610;2023-05-02T08:12:41;101702.96;;;12.23;100.00
55277;BME280;41136;51.478;-2.610;2023-05-02T08:15:09;101702.98;;;12.25;100.00
55277;BME280;41136;51.478;-2.610;2023-05-02T08:17:32;101701.95;;;12.21;100.00
55277;BME280;41136;51.478;-2.610;2023-05-02T08:19:58;101697.82;;;12.53;100.00
55277;BME280;41136;51.478;-2.610;2023-05-02T08:22:23;101701.68;;;12.04;100.00
55277;BME280;41136;51.478;-2.610;2023-05-02T08:24:48;101699.57;;;12.05;100.00
55277;BME280;41136;51.478;-2.610;2023-05-02T08:27:14;101692.94;;;12.25;100.00
55277;BME280;41136;51.478;-2.610;2023-05-02T08:29:39;101693.93;;;12.48;100.00
55277;BME280;41136;51.478;-2.610;2023-05-02T08:32:04;101698.43;;;12.57;100.00
55277;BME280;41136;51.478;-2.610;2023-05-02T08:34:29;101697.29;;;12.47;100.00
55277;BME280;41136;51.478;-2.610;2023-05-02T08:36:55;101691.33;;;12.55;100.00
55277;BME280;41136;51.478;-2.610;2023-05-02T08:39:21;101698.39;;;12.83;100.00
55277;BME280;41136;51.478;-2.610;2023-05-02T08:41:46;101704.93;;;12.13;100.00
55277;BME280;41136;51.478;-2.610;2023-05-02T08:44:11;101705.03;;;12.87;100.00
55277;BME280;41136;51.478;-2.610;2023-05-02T08:46:40;101707.49;;;12.51;100.00
55277;BME280;41136;51.478;-2.610;2023-05-02T08:49:02;101713.05;;;12.81;100.00
55277;BME280;41136;51.478;-2.610;2023-05-02T08:51:29;101721.12;;;12.23;100.00
55277;BME280;41136;51.478;-2.610;2023-05-02T08:53:53;101727.14;;;12.15;100.00
55277;BME280;41136;51.478;-2.610;2023-05-02T08:56:18;101731.94;;;12.16;100.00
55277;BME280;41136;51.478;-2.610;2023-05-02T08:58:44;101726.79;;;12.37;100.00
55277;BME280;41136;51.478;-2.610;2023-05-02T09:01:12;101720.60;;;12.55;100.00
55277;BME280;41136;51.478;-2.610;2023-05-02T09:03:36;101722.19;;;12.49;100.00
55277;BME280;41136;51.478;-2.610;2023-05-02T09:06:05;101730.06;;;12.73;100.00
55277;BME280;41136;51.478;-2.610;2023-05-02T09:08:25;101738.52;;;12.54;100.00
55277;BME280;41136;51.478;-2.610;2023-05-02T09:10:51;101736.54;;;12.99;100.00
55277;BME280;41136;51.478;-2.610;2023-05-02T09:15:42;101737.63;;;12.88;100.00
55277;BME280;41136;51.478;-2.610;2023-05-02T09:18:07;101733.55;;;13.11;100.00
55277;BME280;41136;51.478;-2.610;2023-05-02T09:20:39;101740.10;;;13.14;100.00
55277;BME280;41136;51.478;-2.610;2023-05-02T09:22:58;101747.33;;;12.99;100.00
55277;BME280;41136;51.478;-2.610;2023-05-02T09:25:23;101754.54;;;13.27;100.00
55277;BME280;41136;51.478;-2.610;2023-05-02T09:27:58;101763.45;;;12.93;100.00
55277;BME280;41136;51.478;-2.610;2023-05-02T09:30:19;101766.34;;;12.85;100.00
55277;BME280;41136;51.478;-2.610;2023-05-02T09:32:44;101765.34;;;12.78;100.00
55277;BME280;41136;51.478;-2.610;2023-05-02T09:35:05;101763.61;;;13.19;100.00
55277;BME280;41136;51.478;-2.610;2023-05-02T09:37:33;101755.40;;;13.22;100.00
55277;BME280;41136;51.478;-2.610;2023-05-02T09:42:29;101742.01;;;13.51;100.00
55277;BME280;41136;51.478;-2.610;2023-05-02T09:44:46;101747.16;;;13.57;100.00
55277;BME280;41136;51.478;-2.610;2023-05-02T09:49:40;101750.06;;;13.64;100.00
55277;BME280;41136;51.478;-2.610;2023-05-02T09:52:09;101759.54;;;13.90;100.00
55277;BME280;41136;51.478;-2.610;2023-05-02T09:54:33;101767.30;;;14.00;100.00
55277;BME280;41136;51.478;-2.610;2023-05-02T09:56:53;101770.90;;;13.65;100.00
55277;BME280;41136;51.478;-2.610;2023-05-02T09:59:19;101770.85;;;14.56;100.00
55277;BME280;41136;51.478;-2.610;2023-05-02T10:01:44;101772.91;;;13.95;100.00
55277;BME280;41136;51.478;-2.610;2023-05-02T10:04:11;101775.04;;;13.94;100.00
55277;BME280;41136;51.478;-2.610;2023-05-02T10:06:35;101776.33;;;14.76;100.00
55277;BME280;41136;51.478;-2.610;2023-05-02T10:09:00;101779.45;;;14.71;100.00
55277;BME280;41136;51.478;-2.610;2023-05-02T10:11:26;101779.81;;;14.42;100.00
55277;BME280;41136;51.478;-2.610;2023-05-02T10:13:51;101780.42;;;14.35;100.00
55277;BME280;41136;51.478;-2.610;2023-05-02T10:16:24;101782.23;;;14.55;100.00
55277;BME280;41136;51.478;-2.610;2023-05-02T10:19:00;101780.17;;;14.20;100.00
55277;BME280;41136;51.478;-2.610;2023-05-02T10:21:10;101786.94;;;14.44;100.00
55277;BME280;41136;51.478;-2.610;2023-05-02T10:23:35;101784.93;;;13.99;100.00
55277;BME280;41136;51.478;-2.610;2023-05-02T10:25:59;101785.14;;;14.72;100.00
55277;BME280;41136;51.478;-2.610;2023-05-02T10:28:26;101787.96;;;14.84;100.00
55277;BME280;41136;51.478;-2.610;2023-05-02T10:30:50;101790.78;;;14.75;100.00
55277;BME280;41136;51.478;-2.610;2023-05-02T10:33:15;101793.21;;;15.28;100.00
55277;BME280;41136;51.478;-2.610;2023-05-02T10:35:48;101795.37;;;15.49;100.00
55277;BME280;41136;51.478;-2.610;2023-05-02T10:38:11;101794.14;;;15.15;100.00
55277;BME280;41136;51.478;-2.610;2023-05-02T10:40:32;101794.51;;;15.33;100.00
55277;BME280;41136;51.478;-2.610;2023-05-02T10:42:57;101792.17;;;15.34;100.00
55277;BME280;41136;51.478;-2.610;2023-05-02T10:45:29;101792.36;;;16.44;98.80
55277;BME280;41136;51.478;-2.610;2023-05-02T10:47:48;101789.48;;;16.55;97.53
55277;BME280;41136;51.478;-2.610;2023-05-02T10:50:14;101781.69;;;16.52;96.68
55277;BME280;41136;51.478;-2.610;2023-05-02T10:52:39;101776.94;;;16.04;96.96
55277;BME280;41136;51.478;-2.610;2023-05-02T10:55:13;101776.59;;;16.42;97.23
55277;BME280;41136;51.478;-2.610;2023-05-02T10:57:30;101782.64;;;15.80;96.25
55277;BME280;41136;51.478;-2.610;2023-05-02T11:00:24;101783.97;;;15.66;98.05
55277;BME280;41136;51.478;-2.610;2023-05-02T11:07:16;101778.83;;;15.70;99.57
55277;BME280;41136;51.478;-2.610;2023-05-02T11:09:38;101773.25;;;16.35;98.68
55277;BME280;41136;51.478;-2.610;2023-05-02T11:12:04;101769.20;;;16.42;98.13
55277;BME280;41136;51.478;-2.610;2023-05-02T11:19:20;101773.70;;;16.70;96.94
55277;BME280;41136;51.478;-2.610;2023-05-02T11:21:45;101777.77;;;16.43;97.29
55277;BME280;41136;51.478;-2.610;2023-05-02T11:26:36;101780.97;;;16.28;98.59
55277;BME280;41136;51.478;-2.610;2023-05-02T11:29:01;101776.84;;;15.82;99.72
55277;BME280;41136;51.478;-2.610;2023-05-02T11:33:55;101776.76;;;16.25;99.35
55277;BME280;41136;51.478;-2.610;2023-05-02T11:38:43;101775.01;;;16.48;96.82
55277;BME280;41136;51.478;-2.610;2023-05-02T11:41:08;101770.87;;;16.80;96.43
55277;BME280;41136;51.478;-2.610;2023-05-02T11:43:34;101767.44;;;16.61;97.51
55277;BME280;41136;51.478;-2.610;2023-05-02T11:46:00;101771.37;;;16.70;96.10
55277;BME280;41136;51.478;-2.610;2023-05-02T11:48:40;101774.73;;;16.85;95.52
55277;BME280;41136;51.478;-2.610;2023-05-02T11:50:52;101772.90;;;17.13;94.59
55277;BME280;41136;51.478;-2.610;2023-05-02T11:53:18;101773.34;;;17.13;94.63
55277;BME280;41136;51.478;-2.610;2023-05-02T11:55:45;101773.67;;;17.46;94.12
55277;BME280;41136;51.478;-2.610;2023-05-02T11:58:13;101776.44;;;17.59;92.63
55277;BME280;41136;51.478;-2.610;2023-05-02T12:00:33;101775.69;;;17.53;90.73
55277;BME280;41136;51.478;-2.610;2023-05-02T12:02:59;101776.72;;;16.91;91.86
55277;BME280;41136;51.478;-2.610;2023-05-02T12:05:27;101779.02;;;17.52;91.99
55277;BME280;41136;51.478;-2.610;2023-05-02T12:07:50;101781.55;;;17.54;90.98
55277;BME280;41136;51.478;-2.610;2023-05-02T12:10:15;101783.92;;;17.48;92.33
55277;BME280;41136;51.478;-2.610;2023-05-02T12:12:43;101788.15;;;17.49;91.26
55277;BME280;41136;51.478;-2.610;2023-05-02T12:15:09;101785.94;;;17.70;90.31
55277;BME280;41136;51.478;-2.610;2023-05-02T12:17:32;101785.40;;;16.69;91.96
55277;BME280;41136;51.478;-2.610;2023-05-02T12:19:57;101784.61;;;17.74;92.29
55277;BME280;41136;51.478;-2.610;2023-05-02T12:22:23;101789.47;;;17.87;91.07
55277;BME280;41136;51.478;-2.610;2023-05-02T12:24:49;101792.46;;;17.79;91.49
55277;BME280;41136;51.478;-2.610;2023-05-02T12:27:15;101791.78;;;17.56;91.16
55277;BME280;41136;51.478;-2.610;2023-05-02T12:29:41;101791.34;;;17.62;89.64
55277;BME280;41136;51.478;-2.610;2023-05-02T12:32:05;101790.87;;;17.97;89.47
55277;BME280;41136;51.478;-2.610;2023-05-02T12:34:32;101785.32;;;18.23;88.62
55277;BME280;41136;51.478;-2.610;2023-05-02T12:36:56;101786.19;;;17.58;91.93
55277;BME280;41136;51.478;-2.610;2023-05-02T12:41:48;101780.04;;;18.59;88.04
55277;BME280;41136;51.478;-2.610;2023-05-02T12:44:12;101774.47;;;18.69;86.10
55277;BME280;41136;51.478;-2.610;2023-05-02T12:49:05;101776.71;;;18.30;85.98
55277;BME280;41136;51.478;-2.610;2023-05-02T12:51:28;101771.05;;;18.40;87.09
55277;BME280;41136;51.478;-2.610;2023-05-02T12:53:54;101764.58;;;18.41;86.36
55277;BME280;41136;51.478;-2.610;2023-05-02T12:56:19;101766.94;;;18.81;86.55
55277;BME280;41136;51.478;-2.610;2023-05-02T12:58:46;101772.48;;;18.48;84.77
55277;BME280;41136;51.478;-2.610;2023-05-02T13:01:11;101776.00;;;18.46;84.55